Time;durP1;ratioP1;P1;durP2;ratioP2;P2;SDS_P1;SDS_P2;PMS_P1;PMS_P2;Temp;Humidity;BMP_temperature;BMP_pressure;BME280_temperature;BME280_humidity;BME280_pressure;Samples;Min_cycle;Max_cycle;Signal;HPM_P1;HPM_P2
2021/07/10 00:00:21;;;;;;;3.50;1.12;;;;;;;15.53;85.14;100551.95;1815656;78;21597;-74
2021/07/10 00:02:48;;;;;;;2.35;0.70;;;;;;;15.55;85.16;100553.41;1815449;78;21015;-74
2021/07/10 00:05:15;;;;;;;3.40;0.62;;;;;;;15.57;85.25;100555.91;1815703;78;20995;-73
2021/07/10 00:07:42;;;;;;;2.15;0.40;;;;;;;15.57;85.25;100555.91;1815747;79;21057;-73
2021/07/10 00:10:11;;;;;;;0.88;0.40;;;;;;;15.57;85.23;100558.09;1815529;79;21443;-74
2021/07/10 00:12:37;;;;;;;3.20;1.47;;;;;;;15.59;85.25;100564.59;1816369;79;21701;-74
2021/07/10 00:15:06;;;;;;;5.00;0.95;;;;;;;15.62;85.26;100568.26;1816106;78;20967;-74
2021/07/10 00:17:32;;;;;;;1.17;0.68;;;;;;;15.61;85.26;100565.24;1815878;79;21026;-73
2021/07/10 00:19:58;;;;;;;6.22;1.37;;;;;;;15.58;85.33;100566.98;1816030;78;21546;-73
2021/07/10 00:22:24;;;;;;;1.98;0.40;;;;;;;15.56;85.34;100557.77;1815875;78;20971;-74
2021/07/10 00:24:50;;;;;;;3.45;0.88;;;;;;;15.57;85.38;100554.56;1815849;79;21070;-74
2021/07/10 00:27:16;;;;;;;7.72;0.95;;;;;;;15.51;85.33;100552.68;1815835;78;21011;-74
2021/07/10 00:29:42;;;;;;;2.60;0.50;;;;;;;15.49;85.34;100549.66;1815839;78;21061;-73
2021/07/10 00:32:09;;;;;;;2.15;0.65;;;;;;;15.48;85.36;100545.31;1815869;79;21529;-74
2021/07/10 00:34:35;;;;;;;4.55;1.70;;;;;;;15.47;85.31;100543.64;1815857;79;21050;-74
2021/07/10 00:37:01;;;;;;;1.30;0.70;;;;;;;15.45;85.31;100551.05;1816216;79;21139;-74
2021/07/10 00:39:27;;;;;;;1.35;0.62;;;;;;;15.45;85.32;100553.73;1815879;78;20968;-73
2021/07/10 00:41:53;;;;;;;2.72;0.90;;;;;;;15.45;85.31;100550.22;1816043;78;21113;-73
2021/07/10 00:44:19;;;;;;;3.70;0.90;;;;;;;15.42;85.29;100551.45;1815600;78;20998;-74
2021/07/10 00:46:45;;;;;;;10.05;1.00;;;;;;;15.45;85.31;100555.08;1815732;78;21113;-73
2021/07/10 00:49:12;;;;;;;1.50;0.80;;;;;;;15.45;85.27;100559.11;1817671;78;21141;-74
2021/07/10 00:51:38;;;;;;;3.85;1.05;;;;;;;15.34;85.29;100533.33;1818921;78;20990;-73
2021/07/10 00:54:04;;;;;;;0.85;0.55;;;;;;;15.44;85.30;100551.27;1819696;78;20990;-73
2021/07/10 00:56:30;;;;;;;4.65;1.17;;;;;;;15.44;85.31;100548.07;1819701;78;21003;-73
2021/07/10 00:58:56;;;;;;;3.20;0.78;;;;;;;15.44;85.30;100544.04;1819781;78;20971;-73
2021/07/10 01:01:22;;;;;;;3.15;0.68;;;;;;;15.44;85.33;100540.52;1819771;78;21628;-73
2021/07/10 01:03:48;;;;;;;2.12;0.50;;;;;;;15.44;85.32;100538.66;1819525;78;20987;-73
2021/07/10 01:06:15;;;;;;;1.62;0.70;;;;;;;15.42;85.33;100533.98;1819292;78;21057;-74
2021/07/10 01:08:42;;;;;;;3.85;0.85;;;;;;;15.42;85.34;100542.05;1819549;78;21499;-73
2021/07/10 01:11:09;;;;;;;7.72;0.60;;;;;;;15.42;85.30;100539.36;1819754;78;21042;-74
2021/07/10 01:13:35;;;;;;;1.17;0.60;;;;;;;15.42;85.32;100547.93;1819506;78;21142;-73
2021/07/10 01:16:04;;;;;;;3.67;0.47;;;;;;;15.41;85.32;100547.09;1819784;78;21506;-73
2021/07/10 01:18:31;;;;;;;1.60;1.13;;;;;;;15.44;85.33;100548.58;1819413;78;20994;-73
2021/07/10 01:20:57;;;;;;;2.35;1.12;;;;;;;15.45;85.33;100555.59;1819686;78;21096;-73
2021/07/10 01:23:23;;;;;;;4.45;1.30;;;;;;;15.45;85.36;100552.40;1819574;78;20990;-73
2021/07/10 01:25:49;;;;;;;2.40;0.75;;;;;;;15.44;85.33;100558.83;1819689;78;22067;-73
2021/07/10 01:28:15;;;;;;;2.42;0.55;;;;;;;15.46;85.33;100555.41;1819515;78;20966;-73
2021/07/10 01:30:42;;;;;;;2.22;0.85;;;;;;;15.47;85.34;100557.08;1819047;78;21041;-73
2021/07/10 01:33:09;;;;;;;1.10;0.72;;;;;;;15.49;85.35;100548.83;1819702;78;21011;-73
2021/07/10 01:35:35;;;;;;;3.00;0.72;;;;;;;15.47;85.35;100554.39;1819491;78;21004;-73
2021/07/10 01:38:02;;;;;;;1.82;0.72;;;;;;;15.48;85.37;100554.72;1819538;78;21142;-73
2021/07/10 01:40:28;;;;;;;4.65;0.80;;;;;;;15.48;85.42;100557.41;1818814;78;21010;-73
2021/07/10 01:42:55;;;;;;;2.12;0.53;;;;;;;15.48;85.42;100557.41;1819455;78;21022;-73
2021/07/10 01:45:22;;;;;;;5.08;1.00;;;;;;;15.46;85.34;100561.30;1819265;78;21089;-73
2021/07/10 01:47:51;;;;;;;5.87;1.00;;;;;;;15.44;85.34;100553.45;1819685;78;21030;-73
2021/07/10 01:50:17;;;;;;;2.22;0.60;;;;;;;15.46;85.36;100558.09;1819785;78;21704;-73
2021/07/10 01:52:45;;;;;;;1.25;0.60;;;;;;;15.44;85.33;100559.33;1818982;78;21034;-74
2021/07/10 01:55:12;;;;;;;6.05;0.78;;;;;;;15.42;85.36;100565.40;1819492;78;21069;-73
2021/07/10 01:57:39;;;;;;;2.02;0.98;;;;;;;15.43;85.36;100564.38;1819065;78;21464;-73
2021/07/10 02:00:10;;;;;;;4.03;1.17;;;;;;;15.43;85.39;100562.53;1819505;78;21029;-74
2021/07/10 02:02:36;;;;;;;2.67;0.60;;;;;;;15.42;85.39;100572.95;1819343;78;21499;-74
2021/07/10 02:05:04;;;;;;;4.22;0.93;;;;;;;15.41;85.41;100565.91;1803731;78;21834;-73
2021/07/10 02:07:30;;;;;;;1.60;0.70;;;;;;;15.37;85.42;100580.80;1766463;81;21483;-73
2021/07/10 02:09:56;;;;;;;3.50;0.80;;;;;;;15.37;85.42;100580.80;1814752;78;21426;-74
2021/07/10 02:12:22;;;;;;;2.40;0.50;;;;;;;15.39;85.41;100588.13;1814135;79;21008;-74
2021/07/10 02:14:48;;;;;;;4.67;0.93;;;;;;;15.38;85.45;100597.72;1814166;79;21075;-73
2021/07/10 02:17:14;;;;;;;3.85;1.25;;;;;;;15.44;85.58;100603.17;1814112;79;21024;-73
2021/07/10 02:19:40;;;;;;;2.72;1.10;;;;;;;15.44;85.58;100603.17;1814213;79;21012;-73
2021/07/10 02:22:06;;;;;;;1.37;0.95;;;;;;;15.43;85.45;100609.56;1813941;79;21008;-74
2021/07/10 02:24:32;;;;;;;1.98;1.00;;;;;;;15.41;85.47;100616.17;1814354;79;21020;-73
2021/07/10 02:26:58;;;;;;;1.95;1.02;;;;;;;15.27;85.46;100592.38;1813991;79;21175;-73
2021/07/10 02:29:24;;;;;;;4.00;0.90;;;;;;;15.36;85.47;100612.72;1813823;79;21024;-73
2021/07/10 02:31:50;;;;;;;2.75;0.70;;;;;;;15.35;85.49;100626.34;1814173;79;20976;-73
2021/07/10 02:34:16;;;;;;;1.95;1.05;;;;;;;15.32;85.50;100631.59;1814255;79;20989;-73
2021/07/10 02:36:43;;;;;;;4.95;1.40;;;;;;;15.36;85.55;100632.88;1814013;79;21071;-74
2021/07/10 02:39:09;;;;;;;5.78;1.95;;;;;;;15.35;85.57;100632.55;1814162;78;21119;-73
2021/07/10 02:41:35;;;;;;;5.33;1.10;;;;;;;15.34;85.58;100642.97;1814120;78;21036;-73
2021/07/10 02:44:01;;;;;;;2.35;1.30;;;;;;;15.31;85.60;100647.39;1813795;79;21000;-73
2021/07/10 02:46:27;;;;;;;2.67;2.05;;;;;;;15.30;85.68;100639.03;1814238;78;21024;-73
2021/07/10 02:48:53;;;;;;;1.60;1.05;;;;;;;15.20;85.65;100632.34;1814263;79;21496;-73
2021/07/10 02:51:19;;;;;;;2.47;1.10;;;;;;;15.20;85.65;100632.34;1814163;79;21866;-73
2021/07/10 02:53:45;;;;;;;3.55;1.17;;;;;;;15.29;85.72;100652.14;1814297;79;21000;-73
2021/07/10 02:56:12;;;;;;;4.30;1.20;;;;;;;15.27;85.74;100654.17;1814726;79;21056;-74
2021/07/10 02:58:38;;;;;;;1.55;0.82;;;;;;;15.28;85.74;100658.53;1814667;78;21044;-73
2021/07/10 03:01:04;;;;;;;1.57;1.12;;;;;;;15.27;85.73;100662.23;1814559;78;21528;-73
2021/07/10 03:03:30;;;;;;;2.35;0.80;;;;;;;15.29;85.74;100656.17;1814920;79;21798;-74
2021/07/10 03:05:56;;;;;;;0.82;0.82;;;;;;;15.30;85.73;100668.59;1814509;78;20977;-74
2021/07/10 03:08:22;;;;;;;1.05;0.60;;;;;;;15.29;85.74;100668.78;1814694;79;20981;-74
2021/07/10 03:10:48;;;;;;;1.25;0.60;;;;;;;15.28;85.69;100669.80;1814682;78;21040;-74
2021/07/10 03:13:15;;;;;;;3.60;1.00;;;;;;;15.26;85.69;100668.66;1814807;79;20989;-74
2021/07/10 03:15:42;;;;;;;1.95;0.85;;;;;;;15.24;85.62;100673.38;1814537;79;21233;-73
2021/07/10 03:18:08;;;;;;;0.55;0.50;;;;;;;15.23;85.59;100667.70;1814491;78;21056;-73
2021/07/10 03:20:34;;;;;;;0.80;0.50;;;;;;;15.26;85.58;100667.83;1814907;79;20973;-73
2021/07/10 03:23:00;;;;;;;5.53;0.70;;;;;;;15.27;85.51;100675.67;1814225;79;21032;-73
2021/07/10 03:25:26;;;;;;;6.60;0.90;;;;;;;15.24;85.35;100666.66;1814846;79;21348;-74
2021/07/10 03:27:52;;;;;;;3.37;0.57;;;;;;;15.25;85.41;100666.98;1813946;78;21108;-73
2021/07/10 03:30:20;;;;;;;0.55;0.47;;;;;;;15.26;85.51;100667.83;1814178;79;21004;-73
2021/07/10 03:32:47;;;;;;;3.40;1.05;;;;;;;15.26;85.51;100667.83;1814160;79;21509;-73
2021/07/10 03:35:14;;;;;;;3.20;0.68;;;;;;;15.28;85.34;100667.94;1814719;78;21072;-73
2021/07/10 03:37:41;;;;;;;0.30;0.30;;;;;;;15.27;85.29;100671.64;1813910;78;21012;-73
2021/07/10 03:40:10;;;;;;;1.17;0.60;;;;;;;15.27;85.25;100670.84;1814527;79;21176;-73
2021/07/10 03:42:37;;;;;;;2.50;1.42;;;;;;;15.27;85.21;100667.61;1814543;78;21517;-73
2021/07/10 03:45:10;;;;;;;4.55;1.65;;;;;;;15.29;85.20;100672.30;1814384;79;21060;-73
2021/07/10 03:47:36;;;;;;;1.07;0.65;;;;;;;15.32;85.15;100661.16;1813636;78;21079;-73
2021/07/10 03:50:04;;;;;;;1.50;0.50;;;;;;;15.31;85.13;100673.43;1799274;78;21048;-74
2021/07/10 03:52:30;;;;;;;3.95;1.40;;;;;;;15.30;85.08;100671.80;1767978;81;21807;-73
2021/07/10 03:54:56;;;;;;;3.60;1.15;;;;;;;15.29;85.07;100666.09;1792293;78;21033;-73
2021/07/10 03:57:22;;;;;;;2.08;0.70;;;;;;;15.29;85.04;100665.58;1792423;80;21100;-73
2021/07/10 03:59:48;;;;;;;1.37;0.78;;;;;;;15.26;84.97;100665.97;1792698;78;21052;-73
2021/07/10 04:02:14;;;;;;;1.12;0.72;;;;;;;15.24;84.92;100669.34;1792618;79;21073;-74
2021/07/10 04:04:40;;;;;;;2.37;1.20;;;;;;;15.25;84.88;100666.98;1792897;80;21123;-73
2021/07/10 04:07:06;;;;;;;0.85;0.75;;;;;;;15.28;84.84;100664.42;1792574;80;21466;-74
2021/07/10 04:09:33;;;;;;;2.70;1.30;;;;;;;15.28;84.84;100664.42;1792558;80;21642;-73
2021/07/10 04:11:59;;;;;;;2.62;0.90;;;;;;;15.27;84.69;100668.95;1792588;78;21462;-73
2021/07/10 04:14:25;;;;;;;2.70;1.77;;;;;;;15.28;84.78;100672.48;1792432;80;21041;-73
2021/07/10 04:16:51;;;;;;;0.85;0.68;;;;;;;15.29;84.75;100662.89;1792794;80;21138;-73
2021/07/10 04:19:17;;;;;;;1.82;0.98;;;;;;;15.28;84.73;100662.56;1792375;80;21005;-73
2021/07/10 04:21:43;;;;;;;0.40;0.40;;;;;;;15.28;84.66;100654.50;1792655;80;21056;-74
2021/07/10 04:24:10;;;;;;;1.15;0.60;;;;;;;15.30;84.63;100658.36;1792223;80;21489;-74
2021/07/10 04:26:36;;;;;;;0.55;0.50;;;;;;;15.30;84.59;100652.47;1792796;80;21462;-74
2021/07/10 04:29:02;;;;;;;1.25;0.80;;;;;;;15.32;84.57;100657.63;1792461;79;21092;-74
2021/07/10 04:31:28;;;;;;;0.90;0.70;;;;;;;15.32;84.53;100669.22;1792319;80;21076;-74
2021/07/10 04:33:54;;;;;;;4.97;0.90;;;;;;;15.33;84.51;100664.17;1792485;79;21033;-74
2021/07/10 04:36:20;;;;;;;0.50;0.50;;;;;;;15.34;84.49;100675.22;1771645;80;20998;-74
2021/07/10 04:38:46;;;;;;;1.92;1.05;;;;;;;15.36;84.50;100681.25;1782258;80;21054;-74
2021/07/10 04:41:12;;;;;;;0.82;0.80;;;;;;;15.37;84.49;100685.61;1777305;79;21141;-74
2021/07/10 04:43:38;;;;;;;3.77;0.80;;;;;;;15.40;84.49;100685.22;1776463;79;21496;-74
2021/07/10 04:46:04;;;;;;;2.40;0.70;;;;;;;15.40;84.46;100685.22;1729380;82;21003;-74
2021/07/10 04:48:30;;;;;;;0.50;0.50;;;;;;;15.43;84.49;100697.42;1774452;80;21050;-73
2021/07/10 04:50:56;;;;;;;3.22;0.85;;;;;;;15.43;84.48;100699.61;1754691;80;20994;-73
2021/07/10 04:53:22;;;;;;;1.20;0.70;;;;;;;15.42;84.45;100702.47;1757858;81;21827;-74
2021/07/10 04:55:48;;;;;;;1.70;0.72;;;;;;;15.42;84.44;100704.66;1758132;81;21005;-74
2021/07/10 04:58:14;;;;;;;1.25;0.90;;;;;;;15.38;84.42;100700.69;1757960;81;20983;-74
2021/07/10 05:00:40;;;;;;;2.27;1.07;;;;;;;15.42;84.41;100703.31;1758144;81;20986;-74
2021/07/10 05:03:06;;;;;;;1.70;1.30;;;;;;;15.48;84.40;100703.06;1758111;81;21031;-74
2021/07/10 05:05:33;;;;;;;2.30;1.00;;;;;;;15.49;84.37;100697.51;1758194;81;21046;-74
2021/07/10 05:08:01;;;;;;;1.32;1.00;;;;;;;15.53;84.34;100695.77;1757953;81;20988;-74
2021/07/10 05:10:27;;;;;;;2.10;1.02;;;;;;;15.56;84.29;100693.52;1757805;81;21089;-74
2021/07/10 05:12:54;;;;;;;1.72;1.20;;;;;;;15.59;84.24;100699.02;1757734;81;21026;-74
2021/07/10 05:15:20;;;;;;;1.72;1.10;;;;;;;15.63;84.20;100704.33;1757586;81;21125;-74
2021/07/10 05:17:46;;;;;;;1.75;1.25;;;;;;;15.63;84.17;100702.98;1758074;81;21076;-74
2021/07/10 05:20:13;;;;;;;1.87;1.20;;;;;;;15.65;84.15;100699.60;1756462;81;21545;-74
2021/07/10 05:22:40;;;;;;;3.30;1.50;;;;;;;15.78;84.19;100714.48;1758033;81;21047;-74
2021/07/10 05:25:07;;;;;;;3.87;1.40;;;;;;;15.78;84.19;100714.48;1758011;81;21471;-74
2021/07/10 05:27:34;;;;;;;1.90;1.45;;;;;;;15.82;84.10;100720.62;1758100;81;21097;-74
2021/07/10 05:30:00;;;;;;;1.92;1.67;;;;;;;15.76;83.96;100705.79;1758027;81;21150;-74
2021/07/10 05:32:26;;;;;;;2.90;1.70;;;;;;;15.76;83.96;100705.79;1757703;81;21108;-74
2021/07/10 05:34:52;;;;;;;1.50;1.40;;;;;;;15.86;83.93;100721.90;1758043;80;21014;-74
2021/07/10 05:37:18;;;;;;;1.45;1.30;;;;;;;15.82;84.00;100726.00;1757974;81;21041;-74
2021/07/10 05:39:44;;;;;;;1.55;1.40;;;;;;;15.71;83.92;100710.91;1758111;81;20999;-73
2021/07/10 05:42:11;;;;;;;1.80;1.50;;;;;;;15.70;83.67;100709.23;1757829;81;21116;-74
2021/07/10 05:44:37;;;;;;;4.25;1.87;;;;;;;15.70;83.67;100709.23;1757994;81;21112;-74
2021/07/10 05:47:04;;;;;;;3.25;1.82;;;;;;;15.85;83.79;100730.16;1757842;81;20995;-74
2021/07/10 05:49:30;;;;;;;3.02;1.60;;;;;;;15.96;83.77;100716.16;1753878;80;21050;-74
2021/07/10 05:51:56;;;;;;;4.92;2.30;;;;;;;16.10;83.74;100728.67;1702989;84;21070;-73
2021/07/10 05:54:22;;;;;;;1.98;1.77;;;;;;;16.26;83.69;100735.07;1728680;83;21836;-74
2021/07/10 05:56:48;;;;;;;3.45;2.40;;;;;;;16.33;83.62;100737.28;1708731;83;21038;-74
2021/07/10 05:59:14;;;;;;;5.08;1.95;;;;;;;16.43;83.59;100740.44;1729116;81;21486;-74
2021/07/10 06:01:40;;;;;;;2.45;1.82;;;;;;;16.52;83.55;100748.36;1736365;81;21029;-74
2021/07/10 06:04:06;;;;;;;4.95;1.62;;;;;;;16.56;83.51;100744.27;1725135;82;21390;-74
2021/07/10 06:06:32;;;;;;;3.62;2.00;;;;;;;16.57;83.54;100744.05;1727693;83;21053;-74
2021/07/10 06:08:59;;;;;;;1.80;1.70;;;;;;;16.57;83.39;100752.67;1759354;81;20982;-74
2021/07/10 06:11:26;;;;;;;5.85;2.20;;;;;;;16.64;83.37;100753.53;1727063;83;21088;-74
2021/07/10 06:13:52;;;;;;;3.70;2.00;;;;;;;16.72;83.32;100753.34;1752407;81;21490;-74
2021/07/10 06:16:18;;;;;;;4.85;1.75;;;;;;;16.78;83.27;100758.75;1740022;81;21080;-74
2021/07/10 06:18:44;;;;;;;2.70;1.90;;;;;;;16.85;83.20;100761.49;1744295;81;21322;-74
2021/07/10 06:21:10;;;;;;;4.72;2.83;;;;;;;16.90;83.13;100767.92;1743147;81;21062;-74
2021/07/10 06:23:36;;;;;;;3.58;2.50;;;;;;;16.98;83.04;100765.58;1731148;81;21085;-74
2021/07/10 06:26:02;;;;;;;4.00;2.30;;;;;;;17.07;82.89;100775.13;1744723;81;21093;-74
2021/07/10 06:28:28;;;;;;;3.60;1.98;;;;;;;17.07;82.80;100781.86;1740277;81;21113;-74
2021/07/10 06:30:56;;;;;;;5.80;2.22;;;;;;;17.03;82.64;100776.55;1734681;81;21153;-74
2021/07/10 06:33:22;;;;;;;6.12;2.50;;;;;;;17.00;82.56;100774.27;1759703;81;21061;-74
2021/07/10 06:35:48;;;;;;;4.60;2.58;;;;;;;17.00;82.45;100775.62;1756933;81;20994;-74
2021/07/10 06:38:14;;;;;;;3.33;2.80;;;;;;;17.06;82.38;100775.34;1754443;81;21491;-74
2021/07/10 06:40:40;;;;;;;5.20;2.80;;;;;;;17.17;82.28;100774.21;1744426;81;21061;-74
2021/07/10 06:43:06;;;;;;;6.08;2.70;;;;;;;17.22;82.14;100771.75;1730572;81;21579;-74
2021/07/10 06:45:32;;;;;;;4.03;2.90;;;;;;;17.23;82.02;100770.73;1735725;80;21069;-74
2021/07/10 06:48:01;;;;;;;8.48;4.12;;;;;;;17.24;81.93;100771.02;1758943;81;21056;-74
2021/07/10 06:50:26;;;;;;;4.20;3.22;;;;;;;17.17;81.83;100772.87;1748891;80;21559;-74
2021/07/10 06:52:52;;;;;;;5.33;3.20;;;;;;;17.12;81.73;100778.56;1787275;79;21467;-74
2021/07/10 06:55:18;;;;;;;5.33;2.70;;;;;;;17.10;81.66;100778.75;1798316;79;21471;-74
2021/07/10 06:57:44;;;;;;;5.28;2.90;;;;;;;17.24;81.62;100788.53;1798292;78;21005;-74
2021/07/10 07:00:16;;;;;;;8.08;3.42;;;;;;;17.38;81.48;100792.92;1797515;79;21046;-74
2021/07/10 07:02:42;;;;;;;6.90;3.27;;;;;;;17.54;81.38;100790.38;1798133;79;21030;-74
2021/07/10 07:05:09;;;;;;;8.85;3.35;;;;;;;17.87;81.30;100794.48;1797991;79;21042;-74
2021/07/10 07:07:35;;;;;;;6.00;2.87;;;;;;;18.27;81.18;100787.16;1798230;79;21157;-74
2021/07/10 07:10:03;;;;;;;6.90;3.30;;;;;;;18.47;80.95;100792.82;1798284;79;21010;-74
2021/07/10 07:12:29;;;;;;;5.70;2.77;;;;;;;18.63;80.82;100790.75;1797963;79;21022;-74
2021/07/10 07:14:56;;;;;;;5.90;3.00;;;;;;;18.67;80.63;100791.47;1798017;79;21022;-74
2021/07/10 07:17:22;;;;;;;4.10;2.47;;;;;;;18.61;80.43;100788.27;1797543;79;21033;-74
2021/07/10 07:19:48;;;;;;;4.25;2.72;;;;;;;18.69;80.30;100783.13;1798167;79;21201;-74
2021/07/10 07:22:14;;;;;;;5.22;2.80;;;;;;;18.71;80.06;100785.11;1798124;79;21027;-74
2021/07/10 07:24:40;;;;;;;4.22;2.77;;;;;;;18.68;79.87;100787.70;1798202;79;21084;-74
2021/07/10 07:27:06;;;;;;;4.17;3.70;;;;;;;18.67;79.62;100782.01;1798257;79;20983;-74
2021/07/10 07:29:32;;;;;;;4.75;2.90;;;;;;;18.57;79.35;100776.74;1798024;79;21105;-74
2021/07/10 07:31:58;;;;;;;10.20;4.25;;;;;;;18.43;79.16;100782.16;1798401;79;21082;-74
2021/07/10 07:34:24;;;;;;;4.42;3.05;;;;;;;18.61;79.07;100788.79;1797768;78;20991;-74
2021/07/10 07:36:50;;;;;;;6.92;3.10;;;;;;;19.01;78.78;100784.03;1798500;79;21561;-74
2021/07/10 07:39:16;;;;;;;7.33;3.55;;;;;;;19.25;78.57;100788.17;1798211;79;20864;-74
2021/07/10 07:41:42;;;;;;;5.47;3.17;;;;;;;19.34;78.42;100790.94;1798329;79;20998;-74
2021/07/10 07:44:08;;;;;;;6.33;3.30;;;;;;;19.32;78.00;100787.61;1798006;79;21443;-74
2021/07/10 07:46:34;;;;;;;6.22;3.35;;;;;;;19.52;77.84;100784.83;1797878;79;21074;-74
2021/07/10 07:49:01;;;;;;;9.13;3.60;;;;;;;19.90;77.51;100782.02;1798181;79;20979;-74
2021/07/10 07:51:27;;;;;;;5.80;3.10;;;;;;;20.26;77.14;100783.98;1797906;79;21064;-74
2021/07/10 07:53:54;;;;;;;3.55;3.25;;;;;;;20.33;76.36;100780.20;1798441;79;21435;-74
2021/07/10 07:56:20;;;;;;;3.67;3.02;;;;;;;20.44;76.12;100775.36;1798279;78;22460;-74
2021/07/10 07:58:46;;;;;;;4.75;3.90;;;;;;;20.63;75.71;100776.72;1798162;79;20982;-74
2021/07/10 08:01:12;;;;;;;5.37;3.77;;;;;;;20.41;75.31;100777.17;1797934;79;20990;-74
2021/07/10 08:03:38;;;;;;;3.05;2.77;;;;;;;20.38;74.95;100774.08;1798000;79;21030;-74
2021/07/10 08:06:05;;;;;;;5.53;2.77;;;;;;;20.46;74.67;100772.95;1797977;79;21018;-74
2021/07/10 08:08:36;;;;;;;6.15;3.58;;;;;;;20.62;74.31;100768.31;1798020;79;21715;-74
2021/07/10 08:11:00;;;;;;;3.58;2.70;;;;;;;20.78;74.05;100771.75;1797866;79;21415;-74
2021/07/10 08:13:26;;;;;;;4.20;2.90;;;;;;;21.16;73.79;100769.61;1797926;79;21002;-74
2021/07/10 08:15:52;;;;;;;3.05;2.47;;;;;;;21.14;73.29;100766.31;1798238;79;21003;-74
2021/07/10 08:18:20;;;;;;;7.97;2.95;;;;;;;21.43;72.92;100769.52;1797529;79;21618;-74
2021/07/10 08:20:46;;;;;;;5.95;2.72;;;;;;;21.56;72.22;100768.50;1798089;79;22464;-74
2021/07/10 08:23:13;;;;;;;4.15;2.55;;;;;;;21.88;72.07;100769.02;1797781;79;20997;-75
2021/07/10 08:25:40;;;;;;;5.47;2.55;;;;;;;22.02;71.62;100773.20;1797829;79;21022;-75
2021/07/10 08:28:06;;;;;;;5.58;2.87;;;;;;;22.19;71.30;100781.46;1798044;78;20978;-74
2021/07/10 08:30:32;;;;;;;6.42;2.40;;;;;;;22.07;70.83;100792.31;1797927;79;21014;-75
2021/07/10 08:32:58;;;;;;;5.72;2.60;;;;;;;22.10;70.41;100786.94;1798081;79;21928;-74
2021/07/10 08:35:25;;;;;;;5.45;2.85;;;;;;;21.70;69.40;100786.76;1797689;79;21000;-74
2021/07/10 08:37:51;;;;;;;4.67;2.90;;;;;;;21.68;69.45;100784.79;1798187;79;20968;-75
2021/07/10 08:40:17;;;;;;;8.05;2.35;;;;;;;21.65;69.41;100782.55;1797749;79;20978;-74
2021/07/10 08:42:43;;;;;;;4.95;2.62;;;;;;;21.78;69.22;100787.23;1797944;79;21536;-75
2021/07/10 08:45:11;;;;;;;3.37;2.77;;;;;;;21.89;68.90;100789.66;1798031;79;22402;-74
2021/07/10 08:47:41;;;;;;;7.45;2.27;;;;;;;22.26;68.99;100787.08;1797988;79;20997;-74
2021/07/10 08:50:12;;;;;;;3.72;2.42;;;;;;;22.59;68.63;100784.27;1798090;79;21472;-75
2021/07/10 08:52:38;;;;;;;3.12;2.22;;;;;;;22.72;68.48;100786.75;1797041;79;21045;-75
2021/07/10 08:55:07;;;;;;;4.30;2.30;;;;;;;22.91;68.31;100788.22;1797582;79;20999;-75
2021/07/10 08:57:36;;;;;;;3.85;3.02;;;;;;;22.88;67.99;100795.50;1798025;79;22589;-75
2021/07/10 09:00:25;;;;;;;3.52;2.22;;;;;;;23.03;67.78;100791.74;1759906;81;21117;-75
2021/07/10 09:02:52;;;;;;;9.50;2.50;;;;;;;22.99;67.48;100792.45;1760338;81;21003;-75
2021/07/10 09:05:19;;;;;;;6.08;2.58;;;;;;;23.03;67.39;100801.27;1759802;81;21023;-75
2021/07/10 09:08:23;;;;;;;8.73;2.58;;;;;;;22.93;67.34;100798.88;1760153;81;21517;-75
2021/07/10 09:11:03;;;;;;;5.30;2.72;;;;;;;22.64;67.32;100795.23;1760168;81;21886;-75
2021/07/10 09:13:44;;;;;;;4.15;2.60;;;;;;;22.28;67.40;100795.80;1759748;81;20982;-75
2021/07/10 09:16:26;;;;;;;7.47;2.70;;;;;;;22.38;67.36;100793.31;1760127;81;20998;-75
2021/07/10 09:18:56;;;;;;;3.20;2.60;;;;;;;22.61;67.11;100787.03;1756195;81;21034;-75
2021/07/10 09:21:45;;;;;;;5.20;2.33;;;;;;;23.03;66.99;100793.10;1732876;81;21022;-75
2021/07/10 09:24:17;;;;;;;6.55;2.47;;;;;;;23.02;66.52;100788.72;1760264;81;21886;-75
2021/07/10 09:26:51;;;;;;;4.58;2.22;;;;;;;22.34;65.68;100792.13;1759874;81;21022;-75
2021/07/10 09:29:22;;;;;;;7.20;2.70;;;;;;;21.92;65.33;100790.58;1759948;81;21109;-75
2021/07/10 09:32:04;;;;;;;4.00;2.50;;;;;;;21.59;64.95;100790.27;1756423;81;21014;-75
2021/07/10 09:37:24;;;;;;;4.03;2.42;;;;;;;21.85;65.19;100797.98;1802845;77;27816;-75
2021/07/10 09:40:11;;;;;;;7.67;2.65;;;;;;;21.78;64.90;100790.47;1790220;78;21093;-75
2021/07/10 09:42:41;;;;;;;5.53;2.35;;;;;;;21.61;64.70;100797.64;1790112;80;21528;-75
2021/07/10 09:45:08;;;;;;;;;;;;;;;21.78;64.71;100791.83;1774209;80;20923;-75
2021/07/10 09:47:36;;;;;;;4.65;2.33;;;;;;;21.61;64.25;100801.71;1771400;80;20175;-75
2021/07/10 09:50:06;;;;;;;3.22;2.65;;;;;;;21.53;64.26;100799.35;1750054;82;21455;-74
2021/07/10 09:52:35;;;;;;;5.03;2.45;;;;;;;21.82;64.33;100800.64;1765300;80;21060;-75
2021/07/10 09:55:05;;;;;;;9.93;3.10;;;;;;;22.08;64.25;100793.15;1768881;80;21898;-75
2021/07/10 09:57:35;;;;;;;6.30;3.00;;;;;;;22.39;64.16;100801.77;1790765;79;21434;-75
2021/07/10 10:00:10;;;;;;;3.58;2.55;;;;;;;22.54;63.83;100795.85;1749635;81;21394;-75
2021/07/10 10:02:51;;;;;;;4.17;2.77;;;;;;;22.25;63.49;100798.17;1758937;81;21033;-75
2021/07/10 10:05:19;;;;;;;2.60;2.22;;;;;;;22.04;63.61;100798.75;1771246;80;21478;-75
2021/07/10 10:07:54;;;;;;;6.50;2.30;;;;;;;22.01;63.47;100797.34;1761453;80;21748;-75
2021/07/10 10:10:36;;;;;;;5.05;2.77;;;;;;;22.27;63.29;100799.58;1784379;80;21081;-75
2021/07/10 10:13:10;;;;;;;3.22;2.80;;;;;;;22.52;63.09;100795.80;1782662;80;21039;-75
2021/07/10 10:15:44;;;;;;;3.80;2.65;;;;;;;22.74;62.80;100807.72;1765003;79;21495;-75
2021/07/10 10:18:12;;;;;;;2.85;2.60;;;;;;;23.14;62.65;100808.56;1754136;80;21066;-75
2021/07/10 10:20:39;;;;;;;3.70;3.12;;;;;;;23.52;62.42;100807.11;1750244;81;21551;-75
2021/07/10 10:23:06;;;;;;;5.45;3.30;;;;;;;23.54;61.76;100805.80;1750369;81;21031;-75
2021/07/10 10:25:32;;;;;;;9.93;2.33;;;;;;;23.53;61.74;100812.86;1750310;81;21006;-75
2021/07/10 10:27:58;;;;;;;3.77;2.20;;;;;;;23.82;61.65;100799.46;1750119;82;21055;-75
2021/07/10 10:30:24;;;;;;;2.98;2.02;;;;;;;24.09;61.30;100796.92;1750148;81;21033;-75
2021/07/10 10:32:50;;;;;;;6.90;3.20;;;;;;;24.29;60.53;100802.17;1749956;81;21819;-75
2021/07/10 10:35:17;;;;;;;3.22;1.90;;;;;;;24.16;59.64;100803.89;1749787;82;21011;-75
2021/07/10 10:37:44;;;;;;;2.72;2.27;;;;;;;24.09;59.33;100801.84;1741395;82;21062;-75
2021/07/10 10:40:22;;;;;;;3.10;1.90;;;;;;;23.72;58.94;100808.83;1742559;81;21089;-75
2021/07/10 10:42:55;;;;;;;4.58;2.52;;;;;;;23.35;58.61;100805.16;1742230;82;21065;-75
2021/07/10 10:45:30;;;;;;;2.83;2.00;;;;;;;23.28;58.64;100815.38;1742281;82;21831;-75
2021/07/10 10:47:56;;;;;;;4.70;2.15;;;;;;;23.25;58.31;100813.14;1741790;81;21022;-75
2021/07/10 10:50:25;;;;;;;4.17;2.30;;;;;;;22.95;57.96;100811.69;1741367;81;21747;-75
2021/07/10 10:52:53;;;;;;;3.50;2.08;;;;;;;23.00;58.08;100809.08;1741990;81;21011;-75
2021/07/10 10:55:34;;;;;;;4.30;2.35;;;;;;;23.19;58.14;100808.64;1741646;81;21368;-75
2021/07/10 10:58:17;;;;;;;4.22;2.70;;;;;;;23.21;57.95;100807.89;1753183;81;21849;-75
2021/07/10 11:00:45;;;;;;;5.00;2.72;;;;;;;23.09;57.76;100811.17;1751139;81;21401;-75
2021/07/10 11:03:14;;;;;;;6.70;2.90;;;;;;;22.93;57.88;100803.78;1762839;81;21392;-75
2021/07/10 11:05:54;;;;;;;4.85;3.20;;;;;;;23.19;58.05;100809.17;1757209;81;21440;-75
2021/07/10 11:08:35;;;;;;;4.37;3.17;;;;;;;23.15;58.03;100806.11;1762530;80;21002;-75
2021/07/10 11:11:07;;;;;;;5.03;3.17;;;;;;;23.36;58.17;100804.07;1750041;81;21774;-75
2021/07/10 11:13:44;;;;;;;6.65;2.80;;;;;;;23.17;58.04;100799.08;1691511;84;21001;-75
2021/07/10 11:16:17;;;;;;;3.47;2.72;;;;;;;23.10;58.15;100808.75;1725538;82;21094;-75
2021/07/10 11:19:05;;;;;;;5.78;3.17;;;;;;;22.93;57.91;100798.34;1722625;81;21043;-75
2021/07/10 11:21:46;;;;;;;5.72;2.70;;;;;;;22.84;57.93;100795.16;1758471;80;20931;-75
2021/07/10 11:24:22;;;;;;;6.12;2.90;;;;;;;22.97;57.53;100799.52;1758281;81;22429;-75
2021/07/10 11:26:59;;;;;;;4.50;3.10;;;;;;;23.33;57.32;100793.67;1757985;81;20939;-75
2021/07/10 11:29:32;;;;;;;6.80;3.35;;;;;;;23.73;57.03;100796.34;1757731;81;21011;-75